DW2465 Weather Reports


Display with metric or nautical units.
time (UTC)temp
F
wind
direction
speed
MPH
gust
MPH
rain 1hr
in
rain 24hr
in
rain mn
in
humidity
%
barometer
mb
20180619120244 62 111 4.0 13.0 0.01 0.06 0.03 93 1014.1
20180619114741 62 103 5.0 16.0 0.01 0.06 0.03 92 1014.2
20180619113239 63 52 6.0 15.0 0.01 0.06 0.03 92 1014.0
20180619111737 63 98 10.0 20.0 0.01 0.06 0.03 93 1013.7
20180619110232 64 72 3.0 14.0 0.00 0.05 0.02 95 1013.7
20180619104730 64 65 5.0 12.0 0.02 0.05 0.02 95 1013.6
20180619103229 64 80 5.0 12.0 0.02 0.05 0.02 95 1013.4
20180619101728 64 59 5.0 12.0 0.02 0.05 0.02 95 1013.3
20180619100226 64 53 4.0 10.0 0.02 0.06 0.02 94 1013.5
20180619094725 64 36 3.0 9.0 0.00 0.04 0.00 94 1013.4
20180619093224 64 37 2.0 10.0 0.00 0.04 0.00 93 1013.4
20180619091734 64 50 5.0 11.0 0.00 0.04 0.00 93 1013.3
20180619090223 64 51 3.0 9.0 0.00 0.04 0.00 92 1013.1
20180619084720 64 63 3.0 11.0 0.00 0.04 0.00 91 1013.2
20180619083219 65 67 3.0 9.0 0.00 0.04 0.00 90 1013.2
20180619081717 65 46 4.0 10.0 0.00 0.04 0.00 87 1013.1
20180619080217 66 77 3.0 8.0 0.00 0.06 0.00 84 1013.2
20180619074711 67 78 2.0 12.0 0.00 0.06 0.00 81 1013.1
20180619073211 67 57 3.0 13.0 0.00 0.06 0.00 80 1013.2
20180619071711 67 45 3.0 11.0 0.00 0.06 0.00 79 1013.2
20180619070207 67 32 3.0 11.0 0.00 0.13 0.00 79 1013.3
20180619064708 67 30 3.0 10.0 0.00 0.13 0.00 79 1013.5
20180619063205 67 72 2.0 13.0 0.00 0.13 0.00 79 1013.5
20180619061706 67 86 4.0 11.0 0.00 0.13 0.00 78 1013.5
20180619060200 67 33 5.0 11.0 0.00 0.24 0.00 77 1013.9
20180619054659 67 86 4.0 10.0 0.00 0.24 0.00 76 1014.0
20180619053156 67 30 5.0 10.0 0.00 0.24 0.00 77 1014.1
20180619051653 67 59 2.0 10.0 0.00 0.24 0.00 78 1014.0
20180619050150 68 19 6.0 12.0 0.00 0.55 0.24 79 1013.8
20180619044649 69 24 3.0 10.0 0.00 0.55 0.24 79 1014.1
20180619043149 69 31 3.0 10.0 0.01 0.55 0.24 77 1014.0
20180619041649 68 49 4.0 11.0 0.01 0.55 0.24 79 1014.2
20180619040149 68 43 2.0 7.0 0.01 0.81 0.24 82 1014.2
20180619034646 69 40 6.0 12.0 0.01 0.81 0.24 81 1014.2
20180619033146 71 14 3.0 10.0 0.00 0.80 0.23 77 1014.2
20180619031645 71 42 4.0 11.0 0.00 0.80 0.23 75 1014.2
20180619030148 71 45 4.0 8.0 0.00 0.80 0.23 74 1014.2
20180619024645 72 41 2.0 6.0 0.00 0.80 0.23 72 1014.3
20180619023144 72 43 2.0 5.0 0.00 0.80 0.23 71 1014.3
20180619021644 72 59 1.0 5.0 0.00 0.80 0.23 71 1014.1
20180619020142 72 58 2.0 5.0 0.00 0.80 0.23 71 1013.7
20180619014642 72 47 1.0 6.0 0.00 0.80 0.23 71 1013.7
20180619013140 73 55 2.0 6.0 0.00 0.80 0.23 71 1013.7
20180619011640 73 48 2.0 9.0 0.00 0.80 0.23 71 1013.6
20180619010140 73 30 4.0 11.0 0.00 0.80 0.23 73 1013.4
20180619004639 73 70 2.0 8.0 0.00 0.80 0.23 76 1013.0
20180619003138 73 30 3.0 11.0 0.00 0.80 0.23 77 1012.8
20180619001637 73 5 5.0 10.0 0.00 0.80 0.23 77 1012.7
20180619000138 73 19 4.0 9.0 0.00 0.80 0.23 78 1012.8
20180618234636 73 41 4.0 8.0 0.00 0.80 0.23 77 1012.8
20180618233139 74 54 3.0 9.0 0.00 0.80 0.23 76 1013.1
20180618231633 73 52 1.0 8.0 0.00 0.80 0.23 78 1013.2
20180618230132 72 17 2.0 9.0 0.00 0.80 0.23 78 1013.3
20180618224631 72 59 4.0 11.0 0.00 0.80 0.23 78 1013.3
20180618223135 73 67 4.0 11.0 0.00 0.80 0.23 77 1013.2
20180618221632 73 350 3.0 9.0 0.00 0.80 0.23 77 1013.4
20180618220131 73 42 3.0 10.0 0.00 0.88 0.23 77 1013.4
20180618214632 73 26 2.0 10.0 0.00 0.88 0.23 76 1013.6
20180618213125 73 32 3.0 9.0 0.00 0.88 0.23 75 1013.7
20180618211626 73 51 4.0 9.0 0.00 0.88 0.23 74 1014.0
20180618210121 73 57 3.0 9.0 0.00 0.88 0.23 75 1014.1
20180618204619 73 36 2.0 11.0 0.00 0.88 0.23 77 1014.1
20180618203118 73 32 4.0 12.0 0.00 0.88 0.23 77 1014.1
20180618201617 73 69 2.0 11.0 0.00 0.88 0.23 79 1014.1
20180618200114 72 77 4.0 11.0 0.00 0.89 0.23 79 1014.3
20180618194614 71 45 7.0 12.0 0.00 0.89 0.23 80 1014.3
20180618193112 71 13 6.0 13.0 0.00 0.89 0.23 80 1014.3
20180618191610 71 23 5.0 11.0 0.00 0.89 0.23 83 1014.1
20180618190109 70 5 4.0 13.0 0.00 0.89 0.23 86 1014.0
20180618184710 69 57 5.0 14.0 0.00 0.89 0.23 88 1014.1
20180618183107 68 20 2.0 10.0 0.00 0.89 0.23 89 1014.3
20180618181605 67 88 3.0 12.0 0.00 0.89 0.23 91 1014.2
20180618180206 67 23 4.0 12.0 0.00 0.89 0.23 92 1014.2
20180618174604 66 23 6.0 12.0 0.00 0.89 0.23 92 1014.4
20180618173102 66 5 6.0 12.0 0.00 0.89 0.23 94 1014.4
20180618171600 66 19 5.0 11.0 0.00 0.89 0.23 94 1014.4
20180618170059 66 36 2.0 9.0 0.00 0.89 0.23 95 1014.3
20180618164602 66 355 7.0 12.0 0.01 0.89 0.23 94 1014.2
20180618163057 65 5 6.0 12.0 0.02 0.89 0.23 94 1014.1
20180618161600 66 5 2.0 9.0 0.02 0.89 0.23 94 1014.2
20180618160054 66 329 7.0 11.0 0.02 0.89 0.23 93 1013.9
20180618154554 66 30 4.0 10.0 0.01 0.88 0.22 93 1013.8
20180618153052 66 360 6.0 10.0 0.00 0.87 0.21 93 1013.6
20180618151550 65 355 3.0 10.0 0.00 0.87 0.21 93 1013.5
20180618150049 65 35 4.0 12.0 0.00 0.87 0.21 94 1013.3
20180618144548 65 30 6.0 11.0 0.00 0.87 0.21 93 1013.1
20180618143048 65 350 3.0 8.0 0.00 0.87 0.21 94 1013.1
20180618141547 65 17 4.0 12.0 0.00 0.87 0.21 93 1013.1
20180618140045 65 59 7.0 11.0 0.00 0.87 0.21 94 1012.8
20180618134544 65 29 6.0 12.0 0.00 0.87 0.21 94 1012.7
20180618133045 65 9 6.0 12.0 0.00 0.87 0.21 94 1012.7
20180618131544 65 32 7.0 12.0 0.00 0.87 0.21 94 1012.5
20180618130038 65 27 5.0 10.0 0.00 0.89 0.21 94 1012.4
20180618124637 65 25 4.0 12.0 0.00 0.89 0.21 95 1012.1
20180618123036 64 5 7.0 13.0 0.00 0.89 0.21 95 1012.3
20180618121538 65 360 4.0 12.0 0.00 0.89 0.21 95 1011.9